CA66 weather

Monterey Bay Academy Airport
Watsonville, California, United States

Public forecast

Using degrees Fahrenheit for public forecast. Weather courtesy of forecast.io.

Closest aviation weather report (METAR) to Monterey Bay Academy Airport

Closest report is Watsonville Municipal Airport, 3.1 nm (5.7 km) NE. Retrieved 2019/10/17 20:53 UTC (58 minutes ago):

KWVI 172053Z AUTO 17004KT 10SM CLR 22/06 A2995 RMK AO2 SLP142 T02170061 58011

Closest aviation forecast (TAF) to Monterey Bay Academy Airport

Closest forecast is Salinas Municipal Airport, 18.5 nm (34.3 km) SE. Retrieved 2019/10/17 18:39 UTC (3 hours ago):

TAF KSNS 171737Z 1718/1818 28008KT P6SM SCT014 BKN019 OVC023 FM172000 29015G20KT P6SM SCT050 SCT200 FM180400 32008KT P6SM FEW010 FEW200 FM181000 29004KT P6SM FEW010 FEW200 FM181500 VRB03KT P6SM SKC